sensor_id;sensor_type;location;lat;lon;timestamp;P1;durP1;ratioP1;P2;durP2;ratioP2
79790;SDS011;69278;52.220;5.172;2024-02-23T00:00:32;11.30;;;2.00;;
79790;SDS011;69278;52.220;5.172;2024-02-23T00:02:58;5.03;;;1.65;;
79790;SDS011;69278;52.220;5.172;2024-02-23T00:05:25;6.20;;;1.58;;
79790;SDS011;69278;52.220;5.172;2024-02-23T00:07:51;6.45;;;1.50;;
79790;SDS011;69278;52.220;5.172;2024-02-23T00:10:18;3.25;;;1.30;;
79790;SDS011;69278;52.220;5.172;2024-02-23T00:12:44;6.75;;;1.67;;
79790;SDS011;69278;52.220;5.172;2024-02-23T00:15:11;7.43;;;1.60;;
79790;SDS011;69278;52.220;5.172;2024-02-23T00:17:37;7.47;;;1.17;;
79790;SDS011;69278;52.220;5.172;2024-02-23T00:20:08;4.80;;;1.65;;
79790;SDS011;69278;52.220;5.172;2024-02-23T00:22:37;5.95;;;1.80;;
79790;SDS011;69278;52.220;5.172;2024-02-23T00:25:04;6.35;;;1.40;;
79790;SDS011;69278;52.220;5.172;2024-02-23T00:27:31;6.75;;;1.50;;
79790;SDS011;69278;52.220;5.172;2024-02-23T00:29:58;6.25;;;2.10;;
79790;SDS011;69278;52.220;5.172;2024-02-23T00:32:25;3.85;;;1.40;;
79790;SDS011;69278;52.220;5.172;2024-02-23T00:34:51;4.20;;;1.58;;
79790;SDS011;69278;52.220;5.172;2024-02-23T00:37:18;9.13;;;1.58;;
79790;SDS011;69278;52.220;5.172;2024-02-23T00:39:44;4.75;;;1.40;;
79790;SDS011;69278;52.220;5.172;2024-02-23T00:42:11;10.68;;;1.83;;
79790;SDS011;69278;52.220;5.172;2024-02-23T00:44:37;5.50;;;1.50;;
79790;SDS011;69278;52.220;5.172;2024-02-23T00:47:04;6.68;;;1.55;;
79790;SDS011;69278;52.220;5.172;2024-02-23T00:49:31;6.20;;;1.52;;
79790;SDS011;69278;52.220;5.172;2024-02-23T00:51:57;8.18;;;1.55;;
79790;SDS011;69278;52.220;5.172;2024-02-23T00:54:24;8.57;;;1.70;;
79790;SDS011;69278;52.220;5.172;2024-02-23T00:56:50;6.68;;;1.85;;
79790;SDS011;69278;52.220;5.172;2024-02-23T00:59:20;4.80;;;1.42;;
79790;SDS011;69278;52.220;5.172;2024-02-23T01:01:47;6.03;;;1.65;;
79790;SDS011;69278;52.220;5.172;2024-02-23T01:04:14;4.28;;;1.35;;
79790;SDS011;69278;52.220;5.172;2024-02-23T01:06:40;6.78;;;1.45;;
79790;SDS011;69278;52.220;5.172;2024-02-23T01:09:07;4.63;;;1.08;;
79790;SDS011;69278;52.220;5.172;2024-02-23T01:11:33;6.32;;;1.48;;
79790;SDS011;69278;52.220;5.172;2024-02-23T01:14:00;3.97;;;1.60;;
79790;SDS011;69278;52.220;5.172;2024-02-23T01:16:26;6.78;;;1.38;;
79790;SDS011;69278;52.220;5.172;2024-02-23T01:18:53;2.53;;;1.10;;
79790;SDS011;69278;52.220;5.172;2024-02-23T01:21:19;5.88;;;1.30;;
79790;SDS011;69278;52.220;5.172;2024-02-23T01:23:46;3.88;;;1.60;;
79790;SDS011;69278;52.220;5.172;2024-02-23T01:26:12;7.70;;;1.70;;
79790;SDS011;69278;52.220;5.172;2024-02-23T01:28:39;4.68;;;1.50;;
79790;SDS011;69278;52.220;5.172;2024-02-23T01:31:09;1.35;;;0.80;;
79790;SDS011;69278;52.220;5.172;2024-02-23T01:33:37;3.58;;;1.40;;
79790;SDS011;69278;52.220;5.172;2024-02-23T01:36:05;5.38;;;1.50;;
79790;SDS011;69278;52.220;5.172;2024-02-23T01:38:32;3.88;;;1.17;;
79790;SDS011;69278;52.220;5.172;2024-02-23T01:40:59;5.00;;;1.48;;
79790;SDS011;69278;52.220;5.172;2024-02-23T01:43:26;4.20;;;1.50;;
79790;SDS011;69278;52.220;5.172;2024-02-23T01:45:53;4.38;;;1.40;;
79790;SDS011;69278;52.220;5.172;2024-02-23T01:48:20;5.10;;;1.17;;
79790;SDS011;69278;52.220;5.172;2024-02-23T01:50:47;6.20;;;1.30;;
79790;SDS011;69278;52.220;5.172;2024-02-23T01:53:14;7.63;;;1.50;;
79790;SDS011;69278;52.220;5.172;2024-02-23T01:55:40;5.78;;;1.52;;
79790;SDS011;69278;52.220;5.172;2024-02-23T01:58:08;2.40;;;1.10;;
79790;SDS011;69278;52.220;5.172;2024-02-23T02:00:34;3.47;;;1.45;;
79790;SDS011;69278;52.220;5.172;2024-02-23T02:03:02;3.15;;;1.00;;
79790;SDS011;69278;52.220;5.172;2024-02-23T02:05:35;5.13;;;1.23;;
79790;SDS011;69278;52.220;5.172;2024-02-23T02:08:04;5.00;;;1.30;;
79790;SDS011;69278;52.220;5.172;2024-02-23T02:10:31;2.42;;;1.10;;
79790;SDS011;69278;52.220;5.172;2024-02-23T02:13:01;4.95;;;1.40;;
79790;SDS011;69278;52.220;5.172;2024-02-23T02:15:29;4.13;;;1.25;;
79790;SDS011;69278;52.220;5.172;2024-02-23T02:17:56;3.13;;;1.15;;
79790;SDS011;69278;52.220;5.172;2024-02-23T02:20:25;8.73;;;1.33;;
79790;SDS011;69278;52.220;5.172;2024-02-23T02:22:54;6.88;;;1.30;;
79790;SDS011;69278;52.220;5.172;2024-02-23T02:25:21;3.00;;;1.38;;
79790;SDS011;69278;52.220;5.172;2024-02-23T02:27:48;6.25;;;1.50;;
79790;SDS011;69278;52.220;5.172;2024-02-23T02:30:14;3.92;;;1.10;;
79790;SDS011;69278;52.220;5.172;2024-02-23T02:32:41;3.20;;;1.08;;
79790;SDS011;69278;52.220;5.172;2024-02-23T02:35:09;5.65;;;1.50;;
79790;SDS011;69278;52.220;5.172;2024-02-23T02:37:37;5.15;;;1.50;;
79790;SDS011;69278;52.220;5.172;2024-02-23T02:40:03;4.25;;;1.35;;
79790;SDS011;69278;52.220;5.172;2024-02-23T02:42:31;6.18;;;1.30;;
79790;SDS011;69278;52.220;5.172;2024-02-23T02:44:57;5.82;;;1.40;;
79790;SDS011;69278;52.220;5.172;2024-02-23T02:47:24;4.75;;;1.30;;
79790;SDS011;69278;52.220;5.172;2024-02-23T02:49:51;3.03;;;1.30;;
79790;SDS011;69278;52.220;5.172;2024-02-23T02:52:17;7.63;;;1.40;;
79790;SDS011;69278;52.220;5.172;2024-02-23T02:54:44;3.67;;;1.17;;
79790;SDS011;69278;52.220;5.172;2024-02-23T02:57:10;3.38;;;1.30;;
79790;SDS011;69278;52.220;5.172;2024-02-23T02:59:37;4.50;;;1.10;;
79790;SDS011;69278;52.220;5.172;2024-02-23T03:02:04;3.70;;;1.42;;
79790;SDS011;69278;52.220;5.172;2024-02-23T03:04:30;3.72;;;1.25;;
79790;SDS011;69278;52.220;5.172;2024-02-23T03:06:57;6.68;;;1.42;;
79790;SDS011;69278;52.220;5.172;2024-02-23T03:09:23;2.70;;;1.25;;
79790;SDS011;69278;52.220;5.172;2024-02-23T03:11:50;2.88;;;1.23;;
79790;SDS011;69278;52.220;5.172;2024-02-23T03:14:17;4.05;;;1.55;;
79790;SDS011;69278;52.220;5.172;2024-02-23T03:16:45;8.05;;;1.33;;
79790;SDS011;69278;52.220;5.172;2024-02-23T03:19:14;2.05;;;1.10;;
79790;SDS011;69278;52.220;5.172;2024-02-23T03:21:41;6.13;;;1.30;;
79790;SDS011;69278;52.220;5.172;2024-02-23T03:24:08;6.22;;;1.55;;
79790;SDS011;69278;52.220;5.172;2024-02-23T03:26:34;7.78;;;1.42;;
79790;SDS011;69278;52.220;5.172;2024-02-23T03:29:01;4.50;;;1.25;;
79790;SDS011;69278;52.220;5.172;2024-02-23T03:31:28;3.42;;;1.30;;
79790;SDS011;69278;52.220;5.172;2024-02-23T03:33:55;6.78;;;1.40;;
79790;SDS011;69278;52.220;5.172;2024-02-23T03:36:21;6.40;;;1.50;;
79790;SDS011;69278;52.220;5.172;2024-02-23T03:38:48;4.35;;;1.42;;
79790;SDS011;69278;52.220;5.172;2024-02-23T03:41:14;4.88;;;1.27;;
79790;SDS011;69278;52.220;5.172;2024-02-23T03:43:41;3.58;;;1.38;;
79790;SDS011;69278;52.220;5.172;2024-02-23T03:46:07;8.50;;;1.40;;
79790;SDS011;69278;52.220;5.172;2024-02-23T03:48:34;7.22;;;1.42;;
79790;SDS011;69278;52.220;5.172;2024-02-23T03:51:00;6.07;;;1.65;;
79790;SDS011;69278;52.220;5.172;2024-02-23T03:53:27;5.10;;;1.40;;
79790;SDS011;69278;52.220;5.172;2024-02-23T03:55:54;2.78;;;1.30;;
79790;SDS011;69278;52.220;5.172;2024-02-23T03:58:20;4.90;;;1.60;;
79790;SDS011;69278;52.220;5.172;2024-02-23T04:00:47;2.83;;;1.40;;
79790;SDS011;69278;52.220;5.172;2024-02-23T04:03:13;3.30;;;1.50;;
79790;SDS011;69278;52.220;5.172;2024-02-23T04:05:40;5.55;;;1.80;;
79790;SDS011;69278;52.220;5.172;2024-02-23T04:08:07;3.83;;;1.15;;
79790;SDS011;69278;52.220;5.172;2024-02-23T04:10:34;3.90;;;1.45;;
79790;SDS011;69278;52.220;5.172;2024-02-23T04:13:01;5.20;;;1.60;;
79790;SDS011;69278;52.220;5.172;2024-02-23T04:15:27;3.72;;;1.27;;
79790;SDS011;69278;52.220;5.172;2024-02-23T04:17:54;5.47;;;1.70;;
79790;SDS011;69278;52.220;5.172;2024-02-23T04:20:20;3.72;;;1.50;;
79790;SDS011;69278;52.220;5.172;2024-02-23T04:22:47;3.53;;;1.50;;
79790;SDS011;69278;52.220;5.172;2024-02-23T04:25:14;6.05;;;1.20;;
79790;SDS011;69278;52.220;5.172;2024-02-23T04:27:40;2.53;;;1.40;;
79790;SDS011;69278;52.220;5.172;2024-02-23T04:30:07;5.53;;;1.40;;
79790;SDS011;69278;52.220;5.172;2024-02-23T04:32:34;4.60;;;1.20;;
79790;SDS011;69278;52.220;5.172;2024-02-23T04:35:00;5.85;;;1.70;;
79790;SDS011;69278;52.220;5.172;2024-02-23T04:37:28;3.78;;;1.48;;
79790;SDS011;69278;52.220;5.172;2024-02-23T04:39:54;5.03;;;1.60;;
79790;SDS011;69278;52.220;5.172;2024-02-23T04:42:20;7.82;;;1.80;;
79790;SDS011;69278;52.220;5.172;2024-02-23T04:44:47;4.68;;;1.73;;
79790;SDS011;69278;52.220;5.172;2024-02-23T04:47:15;3.05;;;1.35;;
79790;SDS011;69278;52.220;5.172;2024-02-23T04:49:42;3.13;;;1.73;;
79790;SDS011;69278;52.220;5.172;2024-02-23T04:52:08;6.43;;;1.80;;
79790;SDS011;69278;52.220;5.172;2024-02-23T04:54:35;5.95;;;1.75;;
79790;SDS011;69278;52.220;5.172;2024-02-23T04:57:01;4.40;;;1.77;;
79790;SDS011;69278;52.220;5.172;2024-02-23T04:59:28;4.32;;;1.73;;
79790;SDS011;69278;52.220;5.172;2024-02-23T05:01:56;6.90;;;1.80;;
79790;SDS011;69278;52.220;5.172;2024-02-23T05:04:22;3.83;;;1.55;;
79790;SDS011;69278;52.220;5.172;2024-02-23T05:06:49;4.35;;;1.73;;
79790;SDS011;69278;52.220;5.172;2024-02-23T05:09:15;4.50;;;1.98;;
79790;SDS011;69278;52.220;5.172;2024-02-23T05:11:42;6.15;;;2.20;;
79790;SDS011;69278;52.220;5.172;2024-02-23T05:14:09;5.43;;;1.85;;
79790;SDS011;69278;52.220;5.172;2024-02-23T05:16:35;7.05;;;1.83;;
79790;SDS011;69278;52.220;5.172;2024-02-23T05:19:02;9.43;;;1.98;;
79790;SDS011;69278;52.220;5.172;2024-02-23T05:21:29;8.07;;;2.20;;
79790;SDS011;69278;52.220;5.172;2024-02-23T05:23:55;5.53;;;1.85;;
79790;SDS011;69278;52.220;5.172;2024-02-23T05:26:22;4.72;;;2.15;;
79790;SDS011;69278;52.220;5.172;2024-02-23T05:28:48;4.45;;;2.20;;
79790;SDS011;69278;52.220;5.172;2024-02-23T05:31:15;4.45;;;2.08;;
79790;SDS011;69278;52.220;5.172;2024-02-23T05:33:41;3.50;;;1.73;;
79790;SDS011;69278;52.220;5.172;2024-02-23T05:36:08;7.50;;;2.38;;
79790;SDS011;69278;52.220;5.172;2024-02-23T05:38:34;5.00;;;2.03;;
79790;SDS011;69278;52.220;5.172;2024-02-23T05:41:01;6.38;;;2.30;;
79790;SDS011;69278;52.220;5.172;2024-02-23T05:43:28;10.65;;;2.67;;
79790;SDS011;69278;52.220;5.172;2024-02-23T05:45:54;6.15;;;2.55;;
79790;SDS011;69278;52.220;5.172;2024-02-23T05:48:23;5.95;;;2.15;;
79790;SDS011;69278;52.220;5.172;2024-02-23T05:50:50;6.43;;;2.20;;
79790;SDS011;69278;52.220;5.172;2024-02-23T05:53:16;5.35;;;2.28;;
79790;SDS011;69278;52.220;5.172;2024-02-23T05:55:43;5.47;;;2.30;;
79790;SDS011;69278;52.220;5.172;2024-02-23T05:58:09;3.15;;;1.85;;
79790;SDS011;69278;52.220;5.172;2024-02-23T06:00:36;8.07;;;2.45;;
79790;SDS011;69278;52.220;5.172;2024-02-23T06:03:02;8.45;;;3.08;;
79790;SDS011;69278;52.220;5.172;2024-02-23T06:05:29;9.18;;;2.83;;
79790;SDS011;69278;52.220;5.172;2024-02-23T06:07:56;5.20;;;2.30;;
79790;SDS011;69278;52.220;5.172;2024-02-23T06:10:23;8.80;;;3.33;;
79790;SDS011;69278;52.220;5.172;2024-02-23T06:12:49;7.38;;;2.72;;
79790;SDS011;69278;52.220;5.172;2024-02-23T06:15:19;8.40;;;3.27;;
79790;SDS011;69278;52.220;5.172;2024-02-23T06:17:46;9.50;;;3.28;;
79790;SDS011;69278;52.220;5.172;2024-02-23T06:20:12;3.33;;;1.65;;
79790;SDS011;69278;52.220;5.172;2024-02-23T06:22:39;10.30;;;2.80;;
79790;SDS011;69278;52.220;5.172;2024-02-23T06:25:05;4.65;;;2.20;;
79790;SDS011;69278;52.220;5.172;2024-02-23T06:27:32;8.77;;;3.00;;
79790;SDS011;69278;52.220;5.172;2024-02-23T06:29:59;9.45;;;2.95;;
79790;SDS011;69278;52.220;5.172;2024-02-23T06:32:25;6.30;;;2.50;;
79790;SDS011;69278;52.220;5.172;2024-02-23T06:34:52;5.38;;;2.22;;
79790;SDS011;69278;52.220;5.172;2024-02-23T06:37:20;4.25;;;1.70;;
79790;SDS011;69278;52.220;5.172;2024-02-23T06:39:46;6.60;;;2.30;;
79790;SDS011;69278;52.220;5.172;2024-02-23T06:42:17;5.95;;;2.35;;
79790;SDS011;69278;52.220;5.172;2024-02-23T06:44:44;6.90;;;2.47;;
79790;SDS011;69278;52.220;5.172;2024-02-23T06:47:10;6.32;;;2.03;;
79790;SDS011;69278;52.220;5.172;2024-02-23T06:49:41;4.35;;;2.03;;
79790;SDS011;69278;52.220;5.172;2024-02-23T06:52:08;4.87;;;2.27;;
79790;SDS011;69278;52.220;5.172;2024-02-23T06:54:35;6.47;;;2.13;;
79790;SDS011;69278;52.220;5.172;2024-02-23T06:57:02;7.25;;;2.17;;
79790;SDS011;69278;52.220;5.172;2024-02-23T06:59:29;6.80;;;1.95;;
79790;SDS011;69278;52.220;5.172;2024-02-23T07:01:55;4.85;;;2.47;;
79790;SDS011;69278;52.220;5.172;2024-02-23T07:04:22;4.70;;;2.22;;
79790;SDS011;69278;52.220;5.172;2024-02-23T07:06:49;3.63;;;1.90;;
79790;SDS011;69278;52.220;5.172;2024-02-23T07:09:15;4.07;;;2.00;;
79790;SDS011;69278;52.220;5.172;2024-02-23T07:11:42;4.43;;;1.88;;
79790;SDS011;69278;52.220;5.172;2024-02-23T07:14:10;5.70;;;1.95;;
79790;SDS011;69278;52.220;5.172;2024-02-23T07:16:38;3.43;;;1.60;;
79790;SDS011;69278;52.220;5.172;2024-02-23T07:19:08;4.22;;;2.17;;
79790;SDS011;69278;52.220;5.172;2024-02-23T07:21:36;5.32;;;1.92;;
79790;SDS011;69278;52.220;5.172;2024-02-23T07:24:05;5.65;;;2.17;;
79790;SDS011;69278;52.220;5.172;2024-02-23T07:26:32;3.45;;;2.10;;
79790;SDS011;69278;52.220;5.172;2024-02-23T07:28:58;7.60;;;1.70;;
79790;SDS011;69278;52.220;5.172;2024-02-23T07:31:25;6.38;;;1.90;;
79790;SDS011;69278;52.220;5.172;2024-02-23T07:33:52;2.85;;;1.83;;
79790;SDS011;69278;52.220;5.172;2024-02-23T07:36:18;5.25;;;1.90;;
79790;SDS011;69278;52.220;5.172;2024-02-23T07:38:45;3.22;;;1.60;;
79790;SDS011;69278;52.220;5.172;2024-02-23T07:41:11;5.88;;;2.10;;
79790;SDS011;69278;52.220;5.172;2024-02-23T07:43:39;5.55;;;2.08;;
79790;SDS011;69278;52.220;5.172;2024-02-23T07:46:06;7.07;;;1.83;;
79790;SDS011;69278;52.220;5.172;2024-02-23T07:48:35;3.75;;;1.70;;
79790;SDS011;69278;52.220;5.172;2024-02-23T07:51:03;5.80;;;1.80;;
79790;SDS011;69278;52.220;5.172;2024-02-23T07:53:31;5.38;;;1.50;;
79790;SDS011;69278;52.220;5.172;2024-02-23T07:55:59;2.45;;;1.30;;
79790;SDS011;69278;52.220;5.172;2024-02-23T07:58:28;3.67;;;1.63;;
79790;SDS011;69278;52.220;5.172;2024-02-23T08:00:55;7.07;;;1.70;;
79790;SDS011;69278;52.220;5.172;2024-02-23T08:03:21;4.32;;;1.20;;
79790;SDS011;69278;52.220;5.172;2024-02-23T08:05:48;3.20;;;1.40;;
79790;SDS011;69278;52.220;5.172;2024-02-23T08:08:14;4.28;;;1.35;;
79790;SDS011;69278;52.220;5.172;2024-02-23T08:10:41;3.97;;;1.38;;
79790;SDS011;69278;52.220;5.172;2024-02-23T08:13:07;6.47;;;1.50;;
79790;SDS011;69278;52.220;5.172;2024-02-23T08:15:36;7.60;;;1.63;;
79790;SDS011;69278;52.220;5.172;2024-02-23T08:18:03;3.65;;;1.40;;
79790;SDS011;69278;52.220;5.172;2024-02-23T08:20:29;2.60;;;1.30;;
79790;SDS011;69278;52.220;5.172;2024-02-23T08:22:56;6.93;;;1.50;;
79790;SDS011;69278;52.220;5.172;2024-02-23T08:25:23;4.22;;;1.50;;
79790;SDS011;69278;52.220;5.172;2024-02-23T08:27:49;3.72;;;1.38;;
79790;SDS011;69278;52.220;5.172;2024-02-23T08:30:16;2.92;;;1.30;;
79790;SDS011;69278;52.220;5.172;2024-02-23T08:32:42;6.53;;;1.50;;
79790;SDS011;69278;52.220;5.172;2024-02-23T08:35:09;3.28;;;1.50;;
79790;SDS011;69278;52.220;5.172;2024-02-23T08:37:36;4.90;;;1.40;;
79790;SDS011;69278;52.220;5.172;2024-02-23T08:40:03;4.57;;;1.50;;
79790;SDS011;69278;52.220;5.172;2024-02-23T08:42:29;3.53;;;1.52;;
79790;SDS011;69278;52.220;5.172;2024-02-23T08:44:56;6.00;;;1.67;;
79790;SDS011;69278;52.220;5.172;2024-02-23T08:47:22;6.63;;;1.60;;
79790;SDS011;69278;52.220;5.172;2024-02-23T08:49:49;5.43;;;1.83;;
79790;SDS011;69278;52.220;5.172;2024-02-23T08:52:15;5.05;;;1.90;;
79790;SDS011;69278;52.220;5.172;2024-02-23T08:54:42;4.57;;;1.63;;
79790;SDS011;69278;52.220;5.172;2024-02-23T08:57:08;6.38;;;1.75;;
79790;SDS011;69278;52.220;5.172;2024-02-23T08:59:35;3.78;;;1.52;;
79790;SDS011;69278;52.220;5.172;2024-02-23T09:02:01;4.40;;;1.80;;
79790;SDS011;69278;52.220;5.172;2024-02-23T09:04:28;5.57;;;2.00;;
79790;SDS011;69278;52.220;5.172;2024-02-23T09:06:55;6.68;;;1.75;;
79790;SDS011;69278;52.220;5.172;2024-02-23T09:09:21;7.88;;;1.85;;
79790;SDS011;69278;52.220;5.172;2024-02-23T09:11:48;4.40;;;2.00;;
79790;SDS011;69278;52.220;5.172;2024-02-23T09:14:15;4.53;;;1.90;;
79790;SDS011;69278;52.220;5.172;2024-02-23T09:16:42;6.10;;;1.90;;
79790;SDS011;69278;52.220;5.172;2024-02-23T09:19:08;5.85;;;1.83;;
79790;SDS011;69278;52.220;5.172;2024-02-23T09:21:35;9.93;;;1.83;;
79790;SDS011;69278;52.220;5.172;2024-02-23T09:24:01;2.83;;;1.55;;
79790;SDS011;69278;52.220;5.172;2024-02-23T09:26:28;5.30;;;1.73;;
79790;SDS011;69278;52.220;5.172;2024-02-23T09:28:54;5.45;;;1.90;;
79790;SDS011;69278;52.220;5.172;2024-02-23T09:31:21;2.23;;;1.33;;
79790;SDS011;69278;52.220;5.172;2024-02-23T09:33:47;4.50;;;1.63;;
79790;SDS011;69278;52.220;5.172;2024-02-23T09:36:17;6.32;;;1.77;;
79790;SDS011;69278;52.220;5.172;2024-02-23T09:38:43;6.70;;;2.13;;
79790;SDS011;69278;52.220;5.172;2024-02-23T09:41:15;2.90;;;1.60;;
79790;SDS011;69278;52.220;5.172;2024-02-23T09:43:46;5.80;;;1.80;;
79790;SDS011;69278;52.220;5.172;2024-02-23T09:46:15;4.15;;;1.73;;
79790;SDS011;69278;52.220;5.172;2024-02-23T09:48:42;3.95;;;1.63;;
79790;SDS011;69278;52.220;5.172;2024-02-23T09:51:10;4.28;;;1.90;;
79790;SDS011;69278;52.220;5.172;2024-02-23T09:53:38;4.50;;;1.65;;
79790;SDS011;69278;52.220;5.172;2024-02-23T09:56:05;3.60;;;2.00;;
79790;SDS011;69278;52.220;5.172;2024-02-23T09:58:32;4.38;;;1.92;;
79790;SDS011;69278;52.220;5.172;2024-02-23T10:01:00;5.40;;;2.15;;
79790;SDS011;69278;52.220;5.172;2024-02-23T10:03:28;4.68;;;1.95;;
79790;SDS011;69278;52.220;5.172;2024-02-23T10:05:58;4.43;;;1.73;;
79790;SDS011;69278;52.220;5.172;2024-02-23T10:08:30;5.32;;;1.80;;
79790;SDS011;69278;52.220;5.172;2024-02-23T10:10:57;3.63;;;2.08;;
79790;SDS011;69278;52.220;5.172;2024-02-23T10:13:24;4.68;;;1.70;;
79790;SDS011;69278;52.220;5.172;2024-02-23T10:15:51;4.82;;;1.83;;
79790;SDS011;69278;52.220;5.172;2024-02-23T10:18:38;5.03;;;1.67;;
79790;SDS011;69278;52.220;5.172;2024-02-23T10:21:05;3.05;;;1.70;;
79790;SDS011;69278;52.220;5.172;2024-02-23T10:23:31;3.50;;;1.70;;
79790;SDS011;69278;52.220;5.172;2024-02-23T10:26:04;4.85;;;1.80;;
79790;SDS011;69278;52.220;5.172;2024-02-23T10:28:31;5.68;;;2.00;;
79790;SDS011;69278;52.220;5.172;2024-02-23T10:30:58;7.05;;;2.13;;
79790;SDS011;69278;52.220;5.172;2024-02-23T10:33:26;4.55;;;1.83;;
79790;SDS011;69278;52.220;5.172;2024-02-23T10:35:55;4.32;;;2.10;;
79790;SDS011;69278;52.220;5.172;2024-02-23T10:38:26;3.85;;;2.00;;
79790;SDS011;69278;52.220;5.172;2024-02-23T10:40:54;5.95;;;1.90;;
79790;SDS011;69278;52.220;5.172;2024-02-23T10:43:26;3.95;;;1.85;;
79790;SDS011;69278;52.220;5.172;2024-02-23T10:46:07;4.13;;;1.90;;
79790;SDS011;69278;52.220;5.172;2024-02-23T10:48:40;5.75;;;2.10;;
79790;SDS011;69278;52.220;5.172;2024-02-23T10:51:08;4.28;;;2.20;;
79790;SDS011;69278;52.220;5.172;2024-02-23T10:53:36;4.28;;;2.28;;
79790;SDS011;69278;52.220;5.172;2024-02-23T10:56:05;4.68;;;1.95;;
79790;SDS011;69278;52.220;5.172;2024-02-23T10:58:34;3.40;;;2.00;;
79790;SDS011;69278;52.220;5.172;2024-02-23T11:01:01;5.60;;;2.28;;
79790;SDS011;69278;52.220;5.172;2024-02-23T11:03:33;4.40;;;2.20;;
79790;SDS011;69278;52.220;5.172;2024-02-23T11:06:02;6.07;;;2.13;;
79790;SDS011;69278;52.220;5.172;2024-02-23T11:08:33;4.68;;;1.75;;
79790;SDS011;69278;52.220;5.172;2024-02-23T11:11:09;4.05;;;2.30;;
79790;SDS011;69278;52.220;5.172;2024-02-23T11:13:37;5.75;;;2.25;;
79790;SDS011;69278;52.220;5.172;2024-02-23T11:16:05;5.13;;;1.85;;
79790;SDS011;69278;52.220;5.172;2024-02-23T11:18:34;5.82;;;2.28;;
79790;SDS011;69278;52.220;5.172;2024-02-23T11:21:02;3.92;;;2.20;;
79790;SDS011;69278;52.220;5.172;2024-02-23T11:23:42;4.55;;;1.90;;
79790;SDS011;69278;52.220;5.172;2024-02-23T11:26:14;7.93;;;1.70;;
79790;SDS011;69278;52.220;5.172;2024-02-23T11:28:41;3.80;;;2.00;;
79790;SDS011;69278;52.220;5.172;2024-02-23T11:31:18;4.80;;;1.90;;
79790;SDS011;69278;52.220;5.172;2024-02-23T11:33:53;5.40;;;1.98;;
79790;SDS011;69278;52.220;5.172;2024-02-23T11:36:22;4.15;;;2.00;;
79790;SDS011;69278;52.220;5.172;2024-02-23T11:38:53;7.25;;;2.20;;
79790;SDS011;69278;52.220;5.172;2024-02-23T11:41:23;5.85;;;2.20;;
79790;SDS011;69278;52.220;5.172;2024-02-23T11:43:51;6.55;;;2.00;;
79790;SDS011;69278;52.220;5.172;2024-02-23T11:46:18;4.95;;;1.70;;
79790;SDS011;69278;52.220;5.172;2024-02-23T11:48:45;8.63;;;2.20;;
79790;SDS011;69278;52.220;5.172;2024-02-23T11:51:13;30.73;;;2.85;;
79790;SDS011;69278;52.220;5.172;2024-02-23T11:53:41;3.78;;;1.63;;
79790;SDS011;69278;52.220;5.172;2024-02-23T11:56:08;5.05;;;1.90;;
79790;SDS011;69278;52.220;5.172;2024-02-23T11:58:36;3.83;;;1.83;;
79790;SDS011;69278;52.220;5.172;2024-02-23T12:01:03;4.28;;;2.10;;
79790;SDS011;69278;52.220;5.172;2024-02-23T12:03:30;4.45;;;1.95;;
79790;SDS011;69278;52.220;5.172;2024-02-23T12:05:57;3.97;;;2.03;;
79790;SDS011;69278;52.220;5.172;2024-02-23T12:08:25;4.05;;;1.95;;
79790;SDS011;69278;52.220;5.172;2024-02-23T12:10:54;6.32;;;2.47;;
79790;SDS011;69278;52.220;5.172;2024-02-23T12:13:21;5.65;;;2.00;;
79790;SDS011;69278;52.220;5.172;2024-02-23T12:15:48;4.40;;;2.00;;
79790;SDS011;69278;52.220;5.172;2024-02-23T12:18:14;3.72;;;1.95;;
79790;SDS011;69278;52.220;5.172;2024-02-23T12:20:41;4.32;;;1.50;;
79790;SDS011;69278;52.220;5.172;2024-02-23T12:23:08;4.28;;;1.83;;
79790;SDS011;69278;52.220;5.172;2024-02-23T12:25:36;4.95;;;2.05;;
79790;SDS011;69278;52.220;5.172;2024-02-23T12:28:05;6.60;;;1.75;;
79790;SDS011;69278;52.220;5.172;2024-02-23T12:30:32;3.42;;;1.65;;
79790;SDS011;69278;52.220;5.172;2024-02-23T12:33:03;4.47;;;1.98;;
79790;SDS011;69278;52.220;5.172;2024-02-23T12:35:41;3.90;;;1.55;;
79790;SDS011;69278;52.220;5.172;2024-02-23T12:38:08;2.42;;;1.13;;
79790;SDS011;69278;52.220;5.172;2024-02-23T12:40:35;3.03;;;1.65;;
79790;SDS011;69278;52.220;5.172;2024-02-23T12:43:01;6.10;;;2.20;;
79790;SDS011;69278;52.220;5.172;2024-02-23T12:45:28;15.45;;;2.15;;
79790;SDS011;69278;52.220;5.172;2024-02-23T12:47:54;4.28;;;1.55;;
79790;SDS011;69278;52.220;5.172;2024-02-23T12:50:21;3.47;;;1.35;;
79790;SDS011;69278;52.220;5.172;2024-02-23T12:52:47;3.67;;;1.90;;
79790;SDS011;69278;52.220;5.172;2024-02-23T12:55:15;2.42;;;1.25;;
79790;SDS011;69278;52.220;5.172;2024-02-23T12:57:42;3.22;;;1.60;;
79790;SDS011;69278;52.220;5.172;2024-02-23T13:00:08;4.82;;;1.70;;
79790;SDS011;69278;52.220;5.172;2024-02-23T13:02:35;5.55;;;1.40;;
79790;SDS011;69278;52.220;5.172;2024-02-23T13:05:02;6.20;;;1.70;;
79790;SDS011;69278;52.220;5.172;2024-02-23T13:07:29;3.88;;;1.48;;
79790;SDS011;69278;52.220;5.172;2024-02-23T13:09:57;2.00;;;1.30;;
79790;SDS011;69278;52.220;5.172;2024-02-23T13:12:23;4.43;;;1.52;;
79790;SDS011;69278;52.220;5.172;2024-02-23T13:14:51;3.42;;;1.55;;
79790;SDS011;69278;52.220;5.172;2024-02-23T13:17:17;3.90;;;1.60;;
79790;SDS011;69278;52.220;5.172;2024-02-23T13:19:44;4.07;;;1.40;;
79790;SDS011;69278;52.220;5.172;2024-02-23T13:22:30;4.25;;;1.70;;
79790;SDS011;69278;52.220;5.172;2024-02-23T13:24:56;4.88;;;1.70;;
79790;SDS011;69278;52.220;5.172;2024-02-23T13:27:23;5.90;;;1.48;;
79790;SDS011;69278;52.220;5.172;2024-02-23T13:29:49;4.60;;;1.60;;
79790;SDS011;69278;52.220;5.172;2024-02-23T13:32:16;3.28;;;1.40;;
79790;SDS011;69278;52.220;5.172;2024-02-23T13:34:42;3.05;;;1.27;;
79790;SDS011;69278;52.220;5.172;2024-02-23T13:37:09;2.92;;;1.55;;
79790;SDS011;69278;52.220;5.172;2024-02-23T13:39:35;5.07;;;1.40;;
79790;SDS011;69278;52.220;5.172;2024-02-23T13:42:02;3.90;;;1.50;;
79790;SDS011;69278;52.220;5.172;2024-02-23T13:44:29;5.13;;;1.50;;
79790;SDS011;69278;52.220;5.172;2024-02-23T13:46:56;3.63;;;1.55;;
79790;SDS011;69278;52.220;5.172;2024-02-23T13:49:22;3.47;;;1.40;;
79790;SDS011;69278;52.220;5.172;2024-02-23T13:51:49;3.90;;;1.70;;
79790;SDS011;69278;52.220;5.172;2024-02-23T13:54:15;4.20;;;1.50;;
79790;SDS011;69278;52.220;5.172;2024-02-23T13:56:42;2.83;;;1.40;;
79790;SDS011;69278;52.220;5.172;2024-02-23T13:59:08;3.03;;;1.13;;
79790;SDS011;69278;52.220;5.172;2024-02-23T14:01:35;3.03;;;1.20;;
79790;SDS011;69278;52.220;5.172;2024-02-23T14:04:05;4.05;;;1.30;;
79790;SDS011;69278;52.220;5.172;2024-02-23T14:06:33;2.70;;;1.20;;
79790;SDS011;69278;52.220;5.172;2024-02-23T14:08:59;2.60;;;1.13;;
79790;SDS011;69278;52.220;5.172;2024-02-23T14:11:26;2.13;;;1.20;;
79790;SDS011;69278;52.220;5.172;2024-02-23T14:13:53;1.90;;;1.20;;
79790;SDS011;69278;52.220;5.172;2024-02-23T14:16:20;3.55;;;1.30;;
79790;SDS011;69278;52.220;5.172;2024-02-23T14:18:46;1.95;;;1.20;;
79790;SDS011;69278;52.220;5.172;2024-02-23T14:21:13;1.92;;;1.05;;
79790;SDS011;69278;52.220;5.172;2024-02-23T14:23:40;2.13;;;1.20;;
79790;SDS011;69278;52.220;5.172;2024-02-23T14:26:07;3.03;;;1.30;;
79790;SDS011;69278;52.220;5.172;2024-02-23T14:28:34;3.35;;;1.40;;
79790;SDS011;69278;52.220;5.172;2024-02-23T14:31:00;2.85;;;1.35;;
79790;SDS011;69278;52.220;5.172;2024-02-23T14:33:27;4.72;;;1.85;;
79790;SDS011;69278;52.220;5.172;2024-02-23T14:35:53;3.20;;;1.65;;
79790;SDS011;69278;52.220;5.172;2024-02-23T14:38:22;3.65;;;1.90;;
79790;SDS011;69278;52.220;5.172;2024-02-23T14:40:48;6.07;;;1.98;;
79790;SDS011;69278;52.220;5.172;2024-02-23T14:43:15;6.15;;;1.77;;
79790;SDS011;69278;52.220;5.172;2024-02-23T14:45:42;5.80;;;1.73;;
79790;SDS011;69278;52.220;5.172;2024-02-23T14:48:08;2.00;;;1.38;;